Time;durP1;ratioP1;P1;durP2;ratioP2;P2;SDS_P1;SDS_P2;PMS_P1;PMS_P2;Temp;Humidity;BMP_temperature;BMP_pressure;BME280_temperature;BME280_humidity;BME280_pressure;Samples;Min_cycle;Max_cycle;Signal;HPM_P1;HPM_P2
2021/08/08 00:00:24;;;;;;;544.42;435.10;;;;;;;;;;4984738;28;20038;-78
2021/08/08 00:02:50;;;;;;;543.75;430.27;;;;;;;;;;4955801;28;20060;-79
2021/08/08 00:05:16;;;;;;;544.08;431.35;;;;;;;;;;4970222;28;20038;-82
2021/08/08 00:07:42;;;;;;;544.90;431.25;;;;;;;;;;4967569;28;20042;-78
2021/08/08 00:10:10;;;;;;;542.58;433.02;;;;;;;;;;4979553;28;20036;-80
2021/08/08 00:12:36;;;;;;;541.72;429.58;;;;;;;;;;4966385;28;20022;-78
2021/08/08 00:15:03;;;;;;;541.63;429.67;;;;;;;;;;4955189;28;20037;-78
2021/08/08 00:17:29;;;;;;;541.45;426.75;;;;;;;;;;4955473;28;20080;-78
2021/08/08 00:19:56;;;;;;;541.85;431.63;;;;;;;;;;4955394;28;20347;-76
2021/08/08 00:22:26;;;;;;;544.75;434.95;;;;;;;;;;4967609;28;20522;-77
2021/08/08 00:24:52;;;;;;;544.40;432.63;;;;;;;;;;4967278;28;20035;-77
2021/08/08 00:27:18;;;;;;;549.45;439.98;;;;;;;;;;4955139;28;20383;-76
2021/08/08 00:29:44;;;;;;;542.92;431.23;;;;;;;;;;4955105;28;20115;-78
2021/08/08 00:32:16;;;;;;;543.05;429.00;;;;;;;;;;4955611;28;20143;-77
2021/08/08 00:34:42;;;;;;;547.90;435.95;;;;;;;;;;4948211;28;20111;-80
2021/08/08 00:37:08;;;;;;;549.65;434.48;;;;;;;;;;4940810;28;20050;-79
2021/08/08 00:39:35;;;;;;;557.10;439.20;;;;;;;;;;4988741;28;20450;-77
2021/08/08 00:42:01;;;;;;;546.28;433.77;;;;;;;;;;4953872;28;20391;-77
2021/08/08 00:44:27;;;;;;;554.08;435.80;;;;;;;;;;4940046;28;20019;-77
2021/08/08 00:46:53;;;;;;;547.80;436.60;;;;;;;;;;4949946;28;20031;-80
2021/08/08 00:49:19;;;;;;;546.88;433.60;;;;;;;;;;4947052;28;20658;-76
2021/08/08 00:51:45;;;;;;;546.80;436.60;;;;;;;;;;4966297;28;20023;-75
2021/08/08 00:54:11;;;;;;;548.25;427.17;;;;;;;;;;4964371;28;20376;-78
2021/08/08 00:56:38;;;;;;;550.10;440.23;;;;;;;;;;4968037;28;20062;-77
2021/08/08 00:59:04;;;;;;;553.17;448.10;;;;;;;;;;4949786;28;20023;-77
2021/08/08 01:01:33;;;;;;;547.60;431.67;;;;;;;;;;4967102;28;20098;-76
2021/08/08 01:03:59;;;;;;;549.80;431.70;;;;;;;;;;4970253;28;20033;-78
2021/08/08 01:06:29;;;;;;;544.33;429.20;;;;;;;;;;4970982;28;20023;-75
2021/08/08 01:08:58;;;;;;;559.97;446.90;;;;;;;;;;4968225;28;20030;-77
2021/08/08 01:11:24;;;;;;;545.20;435.58;;;;;;;;;;4969915;28;20046;-75
2021/08/08 01:13:51;;;;;;;546.42;437.05;;;;;;;;;;4940873;28;20023;-81
2021/08/08 01:16:19;;;;;;;544.55;431.88;;;;;;;;;;4966992;28;20678;-77
2021/08/08 01:18:46;;;;;;;546.97;434.95;;;;;;;;;;4962673;28;20023;-76
2021/08/08 01:21:12;;;;;;;545.55;432.10;;;;;;;;;;4966498;28;20081;-77
2021/08/08 01:23:39;;;;;;;547.33;435.42;;;;;;;;;;4950836;28;20053;-77
2021/08/08 01:26:06;;;;;;;548.55;435.38;;;;;;;;;;4949509;28;20039;-79
2021/08/08 01:28:32;;;;;;;549.30;434.02;;;;;;;;;;4954207;28;20023;-78
2021/08/08 01:30:58;;;;;;;550.75;436.45;;;;;;;;;;4945427;28;20070;-75
2021/08/08 01:33:24;;;;;;;552.53;438.13;;;;;;;;;;4946765;28;20027;-78
2021/08/08 01:35:51;;;;;;;555.40;443.92;;;;;;;;;;4940160;28;20070;-76
2021/08/08 01:38:19;;;;;;;550.05;438.50;;;;;;;;;;4964496;28;20131;-76
2021/08/08 01:41:02;;;;;;;552.97;435.52;;;;;;;;;;4944794;29;20032;-77
2021/08/08 01:43:32;;;;;;;545.63;431.80;;;;;;;;;;4944373;28;20044;-77
2021/08/08 01:46:05;;;;;;;545.63;433.63;;;;;;;;;;4942173;28;20039;-76
2021/08/08 01:48:35;;;;;;;547.25;429.17;;;;;;;;;;4946020;28;20031;-77
2021/08/08 01:51:01;;;;;;;551.90;438.13;;;;;;;;;;4942543;28;20031;-77
2021/08/08 01:53:28;;;;;;;549.55;438.42;;;;;;;;;;4945442;29;20027;-77
2021/08/08 01:55:54;;;;;;;543.10;427.25;;;;;;;;;;4944566;29;20035;-78
2021/08/08 01:58:20;;;;;;;542.97;433.40;;;;;;;;;;4943803;28;20047;-77
2021/08/08 02:00:50;;;;;;;543.10;429.70;;;;;;;;;;4937028;29;20034;-77
2021/08/08 02:03:16;;;;;;;546.25;427.75;;;;;;;;;;4937324;28;20359;-77
2021/08/08 02:05:42;;;;;;;549.15;436.17;;;;;;;;;;4947336;28;20034;-77
2021/08/08 02:08:08;;;;;;;549.25;434.35;;;;;;;;;;4949637;28;20122;-78
2021/08/08 02:10:34;;;;;;;546.90;432.23;;;;;;;;;;4938562;29;20139;-78
2021/08/08 02:13:00;;;;;;;551.35;440.70;;;;;;;;;;4946106;28;20039;-78
2021/08/08 02:15:26;;;;;;;548.72;436.77;;;;;;;;;;4940057;29;20610;-77
2021/08/08 02:17:52;;;;;;;551.30;441.48;;;;;;;;;;4943631;28;20020;-78
2021/08/08 02:20:19;;;;;;;559.65;452.13;;;;;;;;;;4947553;28;20027;-76
2021/08/08 02:22:45;;;;;;;552.20;437.63;;;;;;;;;;4952819;28;20658;-77
2021/08/08 02:25:12;;;;;;;554.17;445.25;;;;;;;;;;4955459;28;20059;-79
2021/08/08 02:27:38;;;;;;;547.97;434.70;;;;;;;;;;4962092;28;20050;-78
2021/08/08 02:30:10;;;;;;;552.70;440.42;;;;;;;;;;4950347;28;20031;-76
2021/08/08 02:32:36;;;;;;;551.15;438.92;;;;;;;;;;4965085;28;20062;-77
2021/08/08 02:35:03;;;;;;;561.60;447.15;;;;;;;;;;4947146;28;20169;-78
2021/08/08 02:37:29;;;;;;;551.08;435.40;;;;;;;;;;4949787;28;20177;-78
2021/08/08 02:39:55;;;;;;;551.08;435.38;;;;;;;;;;4952520;28;20112;-79
2021/08/08 02:42:22;;;;;;;553.55;442.95;;;;;;;;;;4959129;28;20495;-78
2021/08/08 02:44:48;;;;;;;551.33;439.70;;;;;;;;;;4969240;28;20057;-80
2021/08/08 02:47:14;;;;;;;562.10;452.10;;;;;;;;;;4962489;28;20027;-81
2021/08/08 02:49:40;;;;;;;558.38;450.17;;;;;;;;;;4947578;28;20106;-80
2021/08/08 02:52:07;;;;;;;551.58;437.40;;;;;;;;;;4962934;28;20403;-82
2021/08/08 02:54:33;;;;;;;556.55;448.45;;;;;;;;;;4950343;28;20035;-83
2021/08/08 02:56:59;;;;;;;564.45;455.05;;;;;;;;;;4946980;28;20027;-77
2021/08/08 02:59:25;;;;;;;564.50;450.20;;;;;;;;;;4950244;28;20118;-85
2021/08/08 03:01:51;;;;;;;557.08;448.95;;;;;;;;;;4952252;28;20668;-87
2021/08/08 03:04:17;;;;;;;576.90;462.92;;;;;;;;;;4953979;28;20045;-86
2021/08/08 03:06:46;;;;;;;558.45;450.10;;;;;;;;;;4961341;28;20382;-79
2021/08/08 03:09:12;;;;;;;552.83;439.20;;;;;;;;;;4950887;28;20039;-79
2021/08/08 03:11:45;;;;;;;552.83;445.27;;;;;;;;;;4961511;28;20046;-80
2021/08/08 03:14:12;;;;;;;549.33;437.80;;;;;;;;;;4953103;28;20947;-79
2021/08/08 03:16:38;;;;;;;550.75;439.27;;;;;;;;;;4965573;28;20051;-85
2021/08/08 03:19:04;;;;;;;556.45;441.92;;;;;;;;;;4950253;28;20070;-83
2021/08/08 03:21:29;;;;;;;547.08;434.58;;;;;;;;;;4938694;28;20068;-79
2021/08/08 03:23:55;;;;;;;553.13;440.98;;;;;;;;;;4919456;28;1070127;-83
2021/08/08 03:26:21;;;;;;;552.05;441.30;;;;;;;;;;4955821;28;20826;-79
2021/08/08 03:28:47;;;;;;;553.78;449.98;;;;;;;;;;4948647;28;20031;-78
2021/08/08 03:31:13;;;;;;;556.15;447.38;;;;;;;;;;4968044;28;20118;-77
2021/08/08 03:33:39;;;;;;;559.80;452.00;;;;;;;;;;4968789;28;20054;-76
2021/08/08 03:36:05;;;;;;;549.75;438.38;;;;;;;;;;4966498;28;20066;-76
2021/08/08 03:38:31;;;;;;;548.28;440.17;;;;;;;;;;4967281;28;20429;-77
2021/08/08 03:40:57;;;;;;;542.38;430.55;;;;;;;;;;4954391;28;20367;-77
2021/08/08 03:43:23;;;;;;;547.45;439.75;;;;;;;;;;4955686;28;20402;-79
2021/08/08 03:45:49;;;;;;;551.90;439.45;;;;;;;;;;4958401;28;20031;-78
2021/08/08 03:48:15;;;;;;;548.55;435.88;;;;;;;;;;4952357;28;20035;-76
2021/08/08 03:50:41;;;;;;;552.70;437.55;;;;;;;;;;4951108;28;20081;-76
2021/08/08 03:53:07;;;;;;;552.13;433.90;;;;;;;;;;4939425;28;20059;-74
2021/08/08 03:55:33;;;;;;;554.13;439.08;;;;;;;;;;4963750;28;20031;-76
2021/08/08 03:57:59;;;;;;;550.72;434.50;;;;;;;;;;4968537;28;20110;-75
2021/08/08 04:00:25;;;;;;;550.00;436.10;;;;;;;;;;4958651;28;20035;-76
2021/08/08 04:02:51;;;;;;;553.03;442.23;;;;;;;;;;4972292;28;20023;-74
2021/08/08 04:05:17;;;;;;;558.78;444.42;;;;;;;;;;4965183;28;20080;-76
2021/08/08 04:07:43;;;;;;;557.50;438.45;;;;;;;;;;4936786;28;20089;-77
2021/08/08 04:10:09;;;;;;;548.35;435.60;;;;;;;;;;4949075;28;20070;-75
2021/08/08 04:12:35;;;;;;;548.25;432.13;;;;;;;;;;4962000;28;20027;-77
2021/08/08 04:15:02;;;;;;;548.83;428.65;;;;;;;;;;4949377;28;20113;-75
2021/08/08 04:17:28;;;;;;;549.33;436.08;;;;;;;;;;4962352;28;20500;-75
2021/08/08 04:19:54;;;;;;;548.83;431.85;;;;;;;;;;4951007;28;20065;-76
2021/08/08 04:22:20;;;;;;;552.03;436.42;;;;;;;;;;4964865;28;20137;-74
2021/08/08 04:24:46;;;;;;;546.30;436.77;;;;;;;;;;4950676;28;20139;-74
2021/08/08 04:27:13;;;;;;;542.80;425.92;;;;;;;;;;4947399;28;20123;-74
2021/08/08 04:29:39;;;;;;;540.42;426.23;;;;;;;;;;4968178;28;20035;-75
2021/08/08 04:32:05;;;;;;;544.58;427.95;;;;;;;;;;4942208;28;20031;-74
2021/08/08 04:34:32;;;;;;;538.95;423.73;;;;;;;;;;4950171;28;20555;-76
2021/08/08 04:36:58;;;;;;;542.55;430.63;;;;;;;;;;4965932;28;20696;-76
2021/08/08 04:39:24;;;;;;;541.00;426.23;;;;;;;;;;4949951;28;20418;-79
2021/08/08 04:41:52;;;;;;;541.22;424.77;;;;;;;;;;4954199;28;20053;-75
2021/08/08 04:44:18;;;;;;;544.17;434.23;;;;;;;;;;4948847;28;20475;-75
2021/08/08 04:46:44;;;;;;;540.33;422.20;;;;;;;;;;4944164;28;20099;-77
2021/08/08 04:49:10;;;;;;;546.85;424.67;;;;;;;;;;4971384;28;20026;-78
2021/08/08 04:51:36;;;;;;;542.20;418.88;;;;;;;;;;4966495;28;20019;-76
2021/08/08 04:54:02;;;;;;;541.17;424.48;;;;;;;;;;4968987;28;20026;-74
2021/08/08 04:56:28;;;;;;;548.10;437.25;;;;;;;;;;4956208;28;20050;-75
2021/08/08 04:58:54;;;;;;;546.08;429.90;;;;;;;;;;4943788;28;22069;-75
2021/08/08 05:01:20;;;;;;;550.50;427.83;;;;;;;;;;4973427;28;20063;-77
2021/08/08 05:03:46;;;;;;;543.38;426.50;;;;;;;;;;4965326;28;20052;-77
2021/08/08 05:06:11;;;;;;;542.83;427.60;;;;;;;;;;4960840;28;20031;-76
2021/08/08 05:08:37;;;;;;;542.30;426.42;;;;;;;;;;4949101;28;20645;-78
2021/08/08 05:11:04;;;;;;;540.72;424.80;;;;;;;;;;4951773;28;20035;-78
2021/08/08 05:13:30;;;;;;;540.38;424.08;;;;;;;;;;4941026;28;20027;-77
2021/08/08 05:15:56;;;;;;;551.85;428.05;;;;;;;;;;4961475;28;20487;-78
2021/08/08 05:18:23;;;;;;;542.47;426.33;;;;;;;;;;4944302;28;20571;-76
2021/08/08 05:20:49;;;;;;;545.67;437.65;;;;;;;;;;4967319;28;20027;-77
2021/08/08 05:23:15;;;;;;;540.25;428.90;;;;;;;;;;4953612;28;20055;-77
2021/08/08 05:25:41;;;;;;;542.28;425.88;;;;;;;;;;4955411;28;20037;-76
2021/08/08 05:28:07;;;;;;;549.70;438.00;;;;;;;;;;4952560;28;20486;-77
2021/08/08 05:30:33;;;;;;;549.15;430.65;;;;;;;;;;4947023;28;20123;-76
2021/08/08 05:32:59;;;;;;;548.85;429.88;;;;;;;;;;4948651;28;20038;-80
2021/08/08 05:35:25;;;;;;;574.15;459.48;;;;;;;;;;4958276;28;20031;-76
2021/08/08 05:37:51;;;;;;;553.45;440.88;;;;;;;;;;4950652;28;20110;-77
2021/08/08 05:40:17;;;;;;;547.58;434.27;;;;;;;;;;4949202;28;20118;-77
2021/08/08 05:42:47;;;;;;;546.35;429.20;;;;;;;;;;4942070;28;20035;-79
2021/08/08 05:45:13;;;;;;;627.22;504.70;;;;;;;;;;4946083;28;20046;-77
2021/08/08 05:47:39;;;;;;;547.28;430.55;;;;;;;;;;4955612;28;20028;-78
2021/08/08 05:50:05;;;;;;;538.70;425.80;;;;;;;;;;4960497;28;20148;-78
2021/08/08 05:52:31;;;;;;;540.55;427.75;;;;;;;;;;4951273;28;20109;-78
2021/08/08 05:55:00;;;;;;;545.75;429.92;;;;;;;;;;4958896;28;20140;-83
2021/08/08 05:57:26;;;;;;;555.35;429.70;;;;;;;;;;4961122;28;20707;-79
2021/08/08 05:59:52;;;;;;;578.67;462.35;;;;;;;;;;4949792;28;20080;-78
2021/08/08 06:02:18;;;;;;;543.20;429.02;;;;;;;;;;4944685;28;20100;-76
2021/08/08 06:04:47;;;;;;;594.72;474.50;;;;;;;;;;4971906;28;20023;-78
2021/08/08 06:07:13;;;;;;;538.53;420.42;;;;;;;;;;4948741;28;20051;-78
2021/08/08 06:09:39;;;;;;;539.85;427.35;;;;;;;;;;4943603;28;20034;-79
2021/08/08 06:12:07;;;;;;;579.85;434.75;;;;;;;;;;4962330;28;20497;-77
2021/08/08 06:14:33;;;;;;;556.20;442.10;;;;;;;;;;4948122;28;20392;-81
2021/08/08 06:16:59;;;;;;;546.22;430.92;;;;;;;;;;4948901;28;20038;-79
2021/08/08 06:19:25;;;;;;;541.42;431.65;;;;;;;;;;4965915;28;20031;-77
2021/08/08 06:21:52;;;;;;;545.40;431.27;;;;;;;;;;4943022;28;20027;-78
2021/08/08 06:24:18;;;;;;;527.60;414.80;;;;;;;;;;4946601;28;21900;-78
2021/08/08 06:26:44;;;;;;;523.78;417.27;;;;;;;;;;4960714;28;20061;-77
2021/08/08 06:29:10;;;;;;;522.53;409.08;;;;;;;;;;4950484;28;20491;-79
2021/08/08 06:31:36;;;;;;;521.67;418.80;;;;;;;;;;4941126;28;20034;-78
2021/08/08 06:34:02;;;;;;;519.60;409.67;;;;;;;;;;4965867;28;20050;-76
2021/08/08 06:36:29;;;;;;;524.92;419.95;;;;;;;;;;4951655;28;20035;-76
2021/08/08 06:38:58;;;;;;;526.50;423.95;;;;;;;;;;4960437;28;20038;-79
2021/08/08 06:41:24;;;;;;;527.20;427.77;;;;;;;;;;4969068;28;20050;-78
2021/08/08 06:43:50;;;;;;;526.95;423.30;;;;;;;;;;4963263;28;20020;-76
2021/08/08 06:46:16;;;;;;;529.97;429.17;;;;;;;;;;4935803;28;20039;-77
2021/08/08 06:48:43;;;;;;;525.17;416.77;;;;;;;;;;4950795;28;20028;-76
2021/08/08 06:51:09;;;;;;;527.35;418.15;;;;;;;;;;4951655;28;20054;-79
2021/08/08 06:53:35;;;;;;;523.60;407.00;;;;;;;;;;4982955;28;20550;-77
2021/08/08 06:56:01;;;;;;;524.80;411.42;;;;;;;;;;4968568;28;20018;-79
2021/08/08 06:58:27;;;;;;;528.42;421.92;;;;;;;;;;4935906;28;20032;-78
2021/08/08 07:00:53;;;;;;;527.00;416.83;;;;;;;;;;4944868;28;20388;-76
2021/08/08 07:03:19;;;;;;;527.05;417.50;;;;;;;;;;4947735;28;20039;-79
2021/08/08 07:05:45;;;;;;;528.95;420.02;;;;;;;;;;4949632;28;20118;-77
2021/08/08 07:08:11;;;;;;;528.10;416.55;;;;;;;;;;4962570;28;20744;-79
2021/08/08 07:10:37;;;;;;;531.75;425.63;;;;;;;;;;4950846;28;20036;-78
2021/08/08 07:13:03;;;;;;;533.83;423.45;;;;;;;;;;4966706;28;20030;-79
2021/08/08 07:15:29;;;;;;;530.08;413.15;;;;;;;;;;4945263;28;20972;-79
2021/08/08 07:17:55;;;;;;;536.67;429.23;;;;;;;;;;4959091;28;20028;-78
2021/08/08 07:20:21;;;;;;;536.88;425.30;;;;;;;;;;4979748;28;20054;-79
2021/08/08 07:22:47;;;;;;;538.67;427.63;;;;;;;;;;4949168;28;20046;-79
2021/08/08 07:25:13;;;;;;;540.20;428.75;;;;;;;;;;4960514;28;20454;-78
2021/08/08 07:27:39;;;;;;;537.75;430.10;;;;;;;;;;4944481;28;20035;-78
2021/08/08 07:30:05;;;;;;;535.35;426.52;;;;;;;;;;4946836;28;20038;-77
2021/08/08 07:32:31;;;;;;;537.58;432.92;;;;;;;;;;4944451;29;20086;-77
2021/08/08 07:34:57;;;;;;;543.33;446.30;;;;;;;;;;4939865;28;20031;-76
2021/08/08 07:37:23;;;;;;;544.35;443.00;;;;;;;;;;4940971;28;20537;-77
2021/08/08 07:39:49;;;;;;;579.80;474.25;;;;;;;;;;4941654;28;20483;-79
2021/08/08 07:42:16;;;;;;;563.20;456.63;;;;;;;;;;4955571;28;20067;-78
2021/08/08 07:44:42;;;;;;;553.85;447.33;;;;;;;;;;4943372;28;20374;-78
2021/08/08 07:47:08;;;;;;;557.47;454.42;;;;;;;;;;4949977;28;20112;-76
2021/08/08 07:49:33;;;;;;;536.78;432.95;;;;;;;;;;4947902;28;21896;-76
2021/08/08 07:51:59;;;;;;;537.72;439.80;;;;;;;;;;4943469;28;20035;-79
2021/08/08 07:54:25;;;;;;;531.13;431.23;;;;;;;;;;4953048;28;20034;-74
2021/08/08 07:56:51;;;;;;;536.78;435.33;;;;;;;;;;4945008;28;20035;-74
2021/08/08 07:59:18;;;;;;;532.15;433.77;;;;;;;;;;4962952;28;20030;-78
2021/08/08 08:01:44;;;;;;;539.88;436.38;;;;;;;;;;4956827;28;20024;-82
2021/08/08 08:04:10;;;;;;;530.15;430.38;;;;;;;;;;4955382;28;20025;-79
2021/08/08 08:06:36;;;;;;;530.40;430.95;;;;;;;;;;4951955;28;20102;-84
2021/08/08 08:09:02;;;;;;;527.53;419.80;;;;;;;;;;4962440;28;20107;-78
2021/08/08 08:14:32;;;;;;;533.70;431.13;;;;;;;;;;4953739;29;20038;-79
2021/08/08 08:16:59;;;;;;;534.80;432.58;;;;;;;;;;4954511;28;20028;-84
2021/08/08 08:19:25;;;;;;;541.83;443.63;;;;;;;;;;4952098;28;20057;-83
2021/08/08 08:21:51;;;;;;;543.35;453.75;;;;;;;;;;4949743;28;20058;-82
2021/08/08 08:24:17;;;;;;;539.28;449.17;;;;;;;;;;4965292;28;20080;-81
2021/08/08 08:26:43;;;;;;;541.60;449.42;;;;;;;;;;4967970;28;20448;-82
2021/08/08 08:29:14;;;;;;;545.10;456.75;;;;;;;;;;4958834;28;20028;-81
2021/08/08 08:31:41;;;;;;;542.47;457.50;;;;;;;;;;4954761;28;20511;-77
2021/08/08 08:34:07;;;;;;;540.22;451.30;;;;;;;;;;4953838;28;20041;-78
2021/08/08 08:36:35;;;;;;;538.35;450.65;;;;;;;;;;4969863;28;20456;-76
2021/08/08 08:39:01;;;;;;;542.38;457.40;;;;;;;;;;4953971;29;20023;-77
2021/08/08 08:41:28;;;;;;;539.75;456.27;;;;;;;;;;4938719;28;20081;-75
2021/08/08 08:43:55;;;;;;;542.40;456.65;;;;;;;;;;4964716;28;20034;-77
2021/08/08 08:46:22;;;;;;;547.30;457.58;;;;;;;;;;4965633;28;20035;-74
2021/08/08 08:48:49;;;;;;;544.22;457.45;;;;;;;;;;4954246;28;20026;-77
2021/08/08 08:51:16;;;;;;;536.53;446.23;;;;;;;;;;4935305;28;20530;-75
2021/08/08 08:53:43;;;;;;;540.25;449.08;;;;;;;;;;4952841;28;20037;-76
2021/08/08 08:56:09;;;;;;;536.75;443.35;;;;;;;;;;4956765;28;20126;-76
2021/08/08 08:58:36;;;;;;;553.10;464.73;;;;;;;;;;4953446;28;20073;-80
2021/08/08 09:01:02;;;;;;;552.33;467.38;;;;;;;;;;4951895;28;20073;-75
2021/08/08 09:03:28;;;;;;;548.80;466.60;;;;;;;;;;4952927;28;20034;-79
2021/08/08 09:05:54;;;;;;;547.53;475.55;;;;;;;;;;4963660;28;20034;-77
2021/08/08 09:08:21;;;;;;;544.83;471.02;;;;;;;;;;4951884;28;20393;-76
2021/08/08 09:10:59;;;;;;;556.00;471.02;;;;;;;;;;4968915;28;20153;-77
2021/08/08 09:13:25;;;;;;;544.25;470.05;;;;;;;;;;4931784;29;20031;-75
2021/08/08 09:15:51;;;;;;;545.35;468.60;;;;;;;;;;4950617;28;20023;-75
2021/08/08 09:18:21;;;;;;;547.38;470.48;;;;;;;;;;4966901;28;20065;-79
2021/08/08 09:20:49;;;;;;;550.42;468.90;;;;;;;;;;4951029;28;20023;-77
2021/08/08 09:23:15;;;;;;;548.20;468.85;;;;;;;;;;4945942;28;20407;-76
2021/08/08 09:25:51;;;;;;;542.17;457.27;;;;;;;;;;4947113;29;20035;-79
2021/08/08 09:28:18;;;;;;;538.28;453.25;;;;;;;;;;4947947;28;20031;-77
2021/08/08 09:30:44;;;;;;;528.75;441.92;;;;;;;;;;4948209;28;20032;-79
2021/08/08 09:33:11;;;;;;;531.65;453.25;;;;;;;;;;4948031;28;20024;-77
2021/08/08 09:35:38;;;;;;;527.10;446.73;;;;;;;;;;4930794;29;20203;-77
2021/08/08 09:38:07;;;;;;;528.22;448.50;;;;;;;;;;4941542;28;20057;-77
2021/08/08 09:40:36;;;;;;;542.47;439.45;;;;;;;;;;4948808;28;20497;-79
2021/08/08 09:43:03;;;;;;;526.38;443.58;;;;;;;;;;4947738;28;20031;-80
2021/08/08 09:45:37;;;;;;;528.03;448.00;;;;;;;;;;4946554;28;20081;-78
2021/08/08 09:48:03;;;;;;;527.58;447.30;;;;;;;;;;4947183;28;20047;-78
2021/08/08 09:50:30;;;;;;;528.72;448.08;;;;;;;;;;4948151;28;20161;-80
2021/08/08 09:52:58;;;;;;;528.38;449.65;;;;;;;;;;4946589;28;20024;-78
2021/08/08 09:55:37;;;;;;;538.30;478.77;;;;;;;;;;4965728;28;20487;-77
2021/08/08 09:58:04;;;;;;;531.85;471.60;;;;;;;;;;4946845;29;20061;-79
2021/08/08 10:00:30;;;;;;;544.85;485.33;;;;;;;;;;4947580;28;20136;-77
2021/08/08 10:02:56;;;;;;;542.55;483.08;;;;;;;;;;4947676;28;20089;-78
2021/08/08 10:05:23;;;;;;;546.80;487.35;;;;;;;;;;4944504;28;20506;-77
2021/08/08 10:07:50;;;;;;;549.47;489.52;;;;;;;;;;4946994;28;20534;-77
2021/08/08 10:10:16;;;;;;;546.15;481.15;;;;;;;;;;4942629;28;20053;-77
2021/08/08 10:12:59;;;;;;;534.15;467.70;;;;;;;;;;4936553;28;20035;-77
2021/08/08 10:15:25;;;;;;;531.63;459.15;;;;;;;;;;4944934;28;20019;-78
2021/08/08 10:17:52;;;;;;;533.63;463.80;;;;;;;;;;4946796;28;20410;-78
2021/08/08 10:20:18;;;;;;;533.30;464.90;;;;;;;;;;4946152;29;20118;-80
2021/08/08 10:22:45;;;;;;;531.58;467.35;;;;;;;;;;4944616;28;20051;-78
2021/08/08 10:25:11;;;;;;;533.47;472.23;;;;;;;;;;4941951;29;20045;-80
2021/08/08 10:27:37;;;;;;;542.65;483.13;;;;;;;;;;4946294;28;20515;-77
2021/08/08 10:30:05;;;;;;;536.08;476.55;;;;;;;;;;4945806;28;20122;-79
2021/08/08 10:32:31;;;;;;;531.30;465.00;;;;;;;;;;4945986;28;20439;-81
2021/08/08 10:34:57;;;;;;;532.40;464.92;;;;;;;;;;4944749;28;20031;-78
2021/08/08 10:37:24;;;;;;;535.63;473.67;;;;;;;;;;4947315;28;20035;-76
2021/08/08 10:39:53;;;;;;;531.03;468.15;;;;;;;;;;4947565;28;20505;-77
2021/08/08 10:42:21;;;;;;;533.90;474.05;;;;;;;;;;4954200;28;20035;-78
2021/08/08 10:44:54;;;;;;;540.92;480.33;;;;;;;;;;4951798;28;20042;-77
2021/08/08 10:47:25;;;;;;;532.17;465.13;;;;;;;;;;4957752;28;20027;-75
2021/08/08 10:49:51;;;;;;;529.85;462.42;;;;;;;;;;4948147;28;20036;-77
2021/08/08 10:52:17;;;;;;;532.25;468.65;;;;;;;;;;4939806;29;20028;-75
2021/08/08 10:54:44;;;;;;;530.88;464.88;;;;;;;;;;4949970;28;20033;-77
2021/08/08 10:57:10;;;;;;;532.33;468.40;;;;;;;;;;4944803;29;20023;-76
2021/08/08 10:59:42;;;;;;;534.72;474.35;;;;;;;;;;4939859;28;20019;-75
2021/08/08 11:02:08;;;;;;;540.28;480.85;;;;;;;;;;4943144;28;20429;-76
2021/08/08 11:04:34;;;;;;;554.95;495.40;;;;;;;;;;4948121;28;20026;-79
2021/08/08 11:07:02;;;;;;;564.33;504.73;;;;;;;;;;4942193;28;20024;-78
2021/08/08 11:09:29;;;;;;;562.20;502.33;;;;;;;;;;4942116;28;20031;-78
2021/08/08 11:11:58;;;;;;;556.28;496.83;;;;;;;;;;4943670;28;20031;-76
2021/08/08 11:14:26;;;;;;;556.00;496.52;;;;;;;;;;4933445;28;20514;-74
2021/08/08 11:16:59;;;;;;;557.78;498.15;;;;;;;;;;4941243;28;20605;-75
2021/08/08 11:19:35;;;;;;;559.45;499.85;;;;;;;;;;4939401;29;20031;-76
2021/08/08 11:22:14;;;;;;;571.60;511.45;;;;;;;;;;4942629;28;20067;-78
2021/08/08 11:24:41;;;;;;;583.72;523.50;;;;;;;;;;4961500;28;20088;-77
2021/08/08 11:27:07;;;;;;;586.22;526.13;;;;;;;;;;4940136;28;20031;-76
2021/08/08 11:29:34;;;;;;;572.90;513.05;;;;;;;;;;4952903;28;20041;-76
2021/08/08 11:32:01;;;;;;;566.03;506.08;;;;;;;;;;4963841;28;20058;-77
2021/08/08 11:34:27;;;;;;;555.83;496.27;;;;;;;;;;4946491;28;20034;-77
2021/08/08 11:36:56;;;;;;;562.17;502.35;;;;;;;;;;4950105;28;20062;-81
2021/08/08 11:39:23;;;;;;;557.17;497.58;;;;;;;;;;4954122;28;21704;-77
2021/08/08 11:41:49;;;;;;;562.28;502.55;;;;;;;;;;4968333;28;20021;-76
2021/08/08 11:44:15;;;;;;;557.17;497.02;;;;;;;;;;4971198;28;20139;-75
2021/08/08 11:46:56;;;;;;;554.53;494.80;;;;;;;;;;4946063;28;20049;-77
2021/08/08 11:49:26;;;;;;;543.63;484.23;;;;;;;;;;4949788;28;20033;-76
2021/08/08 11:51:59;;;;;;;538.72;479.30;;;;;;;;;;4972142;28;20043;-78
2021/08/08 11:54:26;;;;;;;534.63;475.48;;;;;;;;;;4944804;28;20053;-80
2021/08/08 11:56:52;;;;;;;542.38;482.98;;;;;;;;;;4965013;28;20117;-77
2021/08/08 11:59:26;;;;;;;542.22;482.98;;;;;;;;;;4948166;28;20103;-77
2021/08/08 12:01:59;;;;;;;555.03;495.40;;;;;;;;;;4960140;28;20023;-78
2021/08/08 12:04:25;;;;;;;559.42;499.70;;;;;;;;;;4963601;28;20104;-76
2021/08/08 12:06:52;;;;;;;552.78;493.25;;;;;;;;;;4948489;28;20073;-75
2021/08/08 12:09:18;;;;;;;540.60;481.45;;;;;;;;;;4957624;28;20039;-77
2021/08/08 12:11:48;;;;;;;556.90;497.27;;;;;;;;;;4965242;28;20517;-75
2021/08/08 12:14:15;;;;;;;553.35;493.80;;;;;;;;;;4951167;28;20478;-78
2021/08/08 12:16:41;;;;;;;562.33;502.52;;;;;;;;;;4966591;28;20023;-77
2021/08/08 12:19:08;;;;;;;557.25;497.73;;;;;;;;;;4969504;28;20034;-77
2021/08/08 12:21:34;;;;;;;555.25;495.60;;;;;;;;;;4950216;28;20065;-76
2021/08/08 12:24:05;;;;;;;552.80;492.90;;;;;;;;;;4955164;28;20043;-77
2021/08/08 12:26:31;;;;;;;;;;;;;;;;;;4954551;28;20397;-78
2021/08/08 12:29:01;;;;;;;534.58;461.70;;;;;;;;;;4969332;28;20012;-76
2021/08/08 12:31:34;;;;;;;533.50;472.77;;;;;;;;;;4959298;28;20070;-80
2021/08/08 12:34:00;;;;;;;532.70;468.92;;;;;;;;;;4955777;28;20049;-77
2021/08/08 12:36:35;;;;;;;535.65;476.40;;;;;;;;;;4944437;28;20035;-78
2021/08/08 12:39:01;;;;;;;540.88;481.50;;;;;;;;;;4959518;28;20081;-80
2021/08/08 12:41:27;;;;;;;545.63;486.20;;;;;;;;;;4971479;28;20109;-79
2021/08/08 12:43:57;;;;;;;550.17;490.70;;;;;;;;;;4941904;28;20383;-76
2021/08/08 12:46:34;;;;;;;569.15;509.02;;;;;;;;;;4963720;28;20026;-79
2021/08/08 12:49:01;;;;;;;574.55;514.58;;;;;;;;;;4956506;28;20035;-78
2021/08/08 12:51:27;;;;;;;572.20;512.35;;;;;;;;;;4955305;28;20030;-79
2021/08/08 12:53:53;;;;;;;585.22;524.78;;;;;;;;;;4973229;28;20027;-75
2021/08/08 12:56:20;;;;;;;578.17;518.17;;;;;;;;;;4954950;28;20463;-81
2021/08/08 12:58:49;;;;;;;564.63;504.92;;;;;;;;;;4954458;28;20110;-76
2021/08/08 13:01:23;;;;;;;553.55;494.23;;;;;;;;;;4957192;28;20031;-77
2021/08/08 13:03:49;;;;;;;544.30;484.98;;;;;;;;;;4952846;28;20030;-81
2021/08/08 13:06:15;;;;;;;539.60;480.25;;;;;;;;;;4965646;28;20035;-79
2021/08/08 13:08:42;;;;;;;540.30;480.90;;;;;;;;;;4967461;28;20474;-78
2021/08/08 13:11:07;;;;;;;533.38;470.00;;;;;;;;;;4955688;28;20030;-76
2021/08/08 13:13:33;;;;;;;537.65;478.20;;;;;;;;;;4953427;28;20031;-79
2021/08/08 13:15:59;;;;;;;536.88;477.35;;;;;;;;;;4971264;28;20019;-79
2021/08/08 13:18:25;;;;;;;536.80;473.05;;;;;;;;;;4971152;28;20030;-80
2021/08/08 13:20:51;;;;;;;534.63;473.40;;;;;;;;;;4968083;28;20027;-78
2021/08/08 13:23:17;;;;;;;530.15;457.35;;;;;;;;;;4951283;28;20051;-81
2021/08/08 13:25:43;;;;;;;532.92;464.42;;;;;;;;;;4983247;28;20070;-83
2021/08/08 13:28:09;;;;;;;532.97;462.42;;;;;;;;;;4940864;28;20118;-80
2021/08/08 13:30:35;;;;;;;531.25;453.83;;;;;;;;;;4952648;28;20440;-82
2021/08/08 13:33:01;;;;;;;530.42;450.58;;;;;;;;;;4953791;28;20018;-80
2021/08/08 13:35:27;;;;;;;532.20;449.90;;;;;;;;;;4948550;28;20023;-79
2021/08/08 13:37:53;;;;;;;534.85;460.67;;;;;;;;;;4963891;28;20035;-78
2021/08/08 13:40:19;;;;;;;531.80;452.77;;;;;;;;;;4953252;28;20031;-79
2021/08/08 13:42:47;;;;;;;535.42;461.15;;;;;;;;;;4959427;28;20027;-80
2021/08/08 13:45:13;;;;;;;535.50;464.92;;;;;;;;;;4949005;28;20557;-80
2021/08/08 13:47:39;;;;;;;534.08;462.70;;;;;;;;;;4948819;28;20458;-79
2021/08/08 13:50:06;;;;;;;536.20;470.20;;;;;;;;;;4947640;28;20411;-79
2021/08/08 13:52:32;;;;;;;536.38;475.45;;;;;;;;;;4961123;28;20088;-80
2021/08/08 13:54:58;;;;;;;541.55;481.70;;;;;;;;;;4946501;28;20539;-80